Time;durP1;ratioP1;P1;durP2;ratioP2;P2;SDS_P1;SDS_P2;PMS_P1;PMS_P2;Temp;Humidity;BMP_temperature;BMP_pressure;BME280_temperature;BME280_humidity;BME280_pressure;Samples;Min_cycle;Max_cycle;Signal;HPM_P1;HPM_P2
2021/12/16 00:09:19;;;;;;;20.38;15.43;;;4.50;99.90;;;;;;5093017;28;20039;-82
2021/12/16 00:33:32;;;;;;;19.75;14.20;;;4.60;99.90;;;;;;5092470;28;20002;-82
2021/12/16 00:36:00;;;;;;;19.20;14.70;;;4.60;99.90;;;;;;5074347;28;20047;-82
2021/12/16 00:38:26;;;;;;;19.80;15.68;;;4.50;99.90;;;;;;5074021;28;20399;-82
2021/12/16 00:40:52;;;;;;;19.20;14.77;;;4.50;99.90;;;;;;5074315;28;20028;-82
2021/12/16 00:43:29;;;;;;;18.05;13.90;;;4.50;99.90;;;;;;5074291;28;20483;-82
2021/12/16 00:46:13;;;;;;;19.60;16.08;;;4.50;99.90;;;;;;5074262;28;20032;-82
2021/12/16 00:54:11;;;;;;;20.08;14.85;;;4.40;99.90;;;;;;5096266;28;20035;-82
2021/12/16 00:57:12;;;;;;;18.23;12.77;;;4.40;99.90;;;;;;5077699;28;20043;-82
2021/12/16 00:59:41;;;;;;;18.25;14.05;;;4.40;99.90;;;;;;5067587;28;20036;-82
2021/12/16 01:37:35;;;;;;;21.02;15.63;;;4.50;99.90;;;;;;5032741;28;20022;-82
2021/12/16 01:40:16;;;;;;;16.42;13.05;;;4.50;99.90;;;;;;5069884;28;20032;-82
2021/12/16 01:48:19;;;;;;;18.40;14.43;;;4.50;99.90;;;;;;5094882;28;20016;-82
2021/12/16 01:50:49;;;;;;;18.92;13.25;;;4.50;99.90;;;;;;5094648;28;20028;-82
2021/12/16 01:56:20;;;;;;;17.27;12.25;;;4.60;99.90;;;;;;5065966;28;20084;-82
2021/12/16 01:58:48;;;;;;;17.45;13.25;;;4.60;99.90;;;;;;5076469;28;20552;-82
2021/12/16 02:01:19;;;;;;;19.27;13.77;;;4.60;99.90;;;;;;5094531;28;20490;-82
2021/12/16 02:03:53;;;;;;;16.88;13.20;;;4.50;99.90;;;;;;5094690;28;20023;-82
2021/12/16 02:08:53;;;;;;;15.75;12.05;;;4.50;99.90;;;;;;5094731;28;20119;-82
2021/12/16 02:34:57;;;;;;;14.88;11.23;;;4.60;99.90;;;;;;5093979;28;20028;-82
2021/12/16 02:37:24;;;;;;;18.25;13.38;;;4.50;99.90;;;;;;5075737;28;20480;-82
2021/12/16 02:39:50;;;;;;;16.63;11.35;;;4.60;99.90;;;;;;5075515;28;20093;-82
2021/12/16 02:42:26;;;;;;;16.05;12.80;;;4.70;99.90;;;;;;5093879;28;20048;-82
2021/12/16 02:50:24;;;;;;;16.38;12.40;;;4.70;99.90;;;;;;5094067;28;20039;-81
2021/12/16 02:52:50;;;;;;;20.52;15.15;;;4.70;99.90;;;;;;5093902;28;20024;-81
2021/12/16 02:55:18;;;;;;;20.67;15.70;;;4.60;99.90;;;;;;5075418;28;20039;-82
2021/12/16 02:57:49;;;;;;;15.73;11.98;;;4.60;99.90;;;;;;5075348;28;20032;-81
2021/12/16 03:00:18;;;;;;;17.58;13.57;;;4.60;99.90;;;;;;5075416;28;20024;-82
2021/12/16 03:02:47;;;;;;;17.83;13.20;;;4.60;99.90;;;;;;5075326;28;20217;-82
2021/12/16 03:05:14;;;;;;;17.95;13.80;;;4.60;99.90;;;;;;5093477;28;20115;-82
2021/12/16 03:07:40;;;;;;;17.23;13.95;;;4.60;99.90;;;;;;5075241;28;20028;-82
2021/12/16 03:13:04;;;;;;;19.52;14.85;;;4.60;99.90;;;;;;5092795;28;20035;-82
2021/12/16 03:18:35;;;;;;;21.20;14.23;;;4.60;99.90;;;;;;5093240;28;20024;-82
2021/12/16 03:21:11;;;;;;;18.30;13.35;;;4.60;99.90;;;;;;5093458;28;20020;-82
2021/12/16 03:33:51;;;;;;;20.42;14.52;;;4.70;99.90;;;;;;5093093;28;20380;-82
2021/12/16 03:38:50;;;;;;;17.92;13.20;;;4.70;99.90;;;;;;5092825;28;20032;-82
2021/12/16 03:41:16;;;;;;;22.77;15.60;;;4.70;99.90;;;;;;5074883;28;20052;-81
2021/12/16 03:43:45;;;;;;;26.05;17.80;;;4.70;99.90;;;;;;5092910;28;20186;-82
2021/12/16 03:46:27;;;;;;;24.27;15.68;;;4.70;99.90;;;;;;5093191;28;20403;-82
2021/12/16 03:49:14;;;;;;;19.08;13.55;;;4.60;99.90;;;;;;5074721;28;20028;-81
2021/12/16 03:51:43;;;;;;;22.73;14.90;;;4.70;99.90;;;;;;5074641;28;20028;-82
2021/12/16 03:54:24;;;;;;;17.50;11.73;;;4.70;99.90;;;;;;5074832;28;20028;-81
2021/12/16 03:56:51;;;;;;;23.08;16.30;;;4.70;99.90;;;;;;5074647;28;20035;-82
2021/12/16 03:59:21;;;;;;;25.13;17.77;;;4.70;99.90;;;;;;5092878;28;20028;-81
2021/12/16 04:01:47;;;;;;;22.58;15.25;;;4.60;99.90;;;;;;5093108;28;20012;-81
2021/12/16 04:04:13;;;;;;;28.45;18.10;;;4.60;99.90;;;;;;5074644;28;20050;-81
2021/12/16 04:06:40;;;;;;;23.40;16.42;;;4.60;99.90;;;;;;5074572;28;20020;-81
2021/12/16 04:09:16;;;;;;;26.15;16.65;;;4.60;99.90;;;;;;5092714;28;20553;-82
2021/12/16 04:11:50;;;;;;;22.55;14.52;;;4.60;99.90;;;;;;5074576;28;20498;-82
2021/12/16 04:14:18;;;;;;;20.25;13.63;;;4.60;99.90;;;;;;5074565;28;20028;-82
2021/12/16 04:16:49;;;;;;;23.90;16.10;;;4.60;99.90;;;;;;5074574;28;20028;-81
2021/12/16 04:19:19;;;;;;;24.17;15.50;;;4.60;99.90;;;;;;5092664;28;20032;-82
2021/12/16 04:21:52;;;;;;;30.33;18.95;;;4.60;99.90;;;;;;5092623;28;20022;-81
2021/12/16 04:24:19;;;;;;;27.58;16.45;;;4.50;99.90;;;;;;5092644;28;20027;-82
2021/12/16 04:26:48;;;;;;;29.25;17.85;;;4.50;99.90;;;;;;5078197;28;20020;-81
2021/12/16 04:29:14;;;;;;;38.70;25.55;;;4.50;99.90;;;;;;5078294;28;20044;-81
2021/12/16 04:31:40;;;;;;;22.98;15.05;;;4.40;99.90;;;;;;5078220;28;20075;-81
2021/12/16 04:34:07;;;;;;;26.85;17.23;;;4.40;99.90;;;;;;5096706;28;20020;-82
2021/12/16 04:36:34;;;;;;;25.95;17.20;;;4.40;99.90;;;;;;5078139;28;20032;-81
2021/12/16 04:39:04;;;;;;;27.52;17.48;;;4.40;99.90;;;;;;5077785;28;20076;-81
2021/12/16 04:41:30;;;;;;;27.25;16.50;;;4.50;99.90;;;;;;5078044;28;20024;-82
2021/12/16 04:43:56;;;;;;;29.95;18.52;;;4.50;99.90;;;;;;5077890;28;20027;-82
2021/12/16 04:46:26;;;;;;;30.92;18.92;;;4.50;99.90;;;;;;5077845;28;20024;-82
2021/12/16 04:48:55;;;;;;;24.58;15.90;;;4.50;99.90;;;;;;5096319;28;20032;-82
2021/12/16 04:51:23;;;;;;;29.98;18.70;;;4.60;99.90;;;;;;5077852;28;20384;-81
2021/12/16 04:53:50;;;;;;;24.73;16.10;;;4.60;99.90;;;;;;5095998;28;20058;-81
2021/12/16 04:56:17;;;;;;;27.95;18.58;;;4.70;99.90;;;;;;5077698;28;20028;-81
2021/12/16 04:58:45;;;;;;;22.67;14.85;;;4.70;99.90;;;;;;5077602;28;20491;-81
2021/12/16 05:01:11;;;;;;;31.17;19.63;;;4.70;99.90;;;;;;5095801;28;20020;-82
2021/12/16 05:03:37;;;;;;;35.22;21.17;;;4.70;99.90;;;;;;5077563;28;20025;-82
2021/12/16 05:06:04;;;;;;;34.60;20.48;;;4.60;99.90;;;;;;5095772;28;20027;-81
2021/12/16 05:08:30;;;;;;;38.80;22.05;;;4.50;99.90;;;;;;5095896;28;20507;-81
2021/12/16 05:10:59;;;;;;;33.85;20.00;;;4.50;99.90;;;;;;5077492;28;20542;-82
2021/12/16 05:13:27;;;;;;;36.28;22.02;;;4.50;99.90;;;;;;5077403;28;20488;-81
2021/12/16 05:15:55;;;;;;;37.97;21.77;;;4.50;99.90;;;;;;5077347;28;20028;-82
2021/12/16 05:18:30;;;;;;;25.65;16.00;;;4.50;99.90;;;;;;5095348;28;20106;-81
2021/12/16 05:20:56;;;;;;;;;;;4.60;99.90;;;;;;5096134;28;20025;-82
2021/12/16 05:28:41;;;;;;;38.70;22.80;;;4.60;99.90;;;;;;5095340;28;20024;-82
2021/12/16 05:31:09;;;;;;;32.53;19.45;;;4.50;99.90;;;;;;5095317;28;20024;-81
2021/12/16 05:33:34;;;;;;;27.52;17.83;;;4.50;99.90;;;;;;5077000;28;20024;-82
2021/12/16 05:36:00;;;;;;;32.78;19.92;;;4.60;99.90;;;;;;5077053;28;20077;-82
2021/12/16 05:38:28;;;;;;;38.60;22.00;;;4.70;99.90;;;;;;5076692;28;20024;-82
2021/12/16 05:40:55;;;;;;;33.72;20.70;;;4.60;99.90;;;;;;5095103;28;20028;-81
2021/12/16 05:43:24;;;;;;;32.42;19.40;;;4.50;99.90;;;;;;5095341;28;20024;-81
2021/12/16 05:45:52;;;;;;;34.60;20.75;;;4.40;99.90;;;;;;5095016;28;20027;-81
2021/12/16 05:48:22;;;;;;;33.50;19.83;;;4.50;99.90;;;;;;5076624;28;20031;-81
2021/12/16 05:50:52;;;;;;;37.33;22.15;;;4.50;99.90;;;;;;5076767;28;20489;-81
2021/12/16 05:53:20;;;;;;;30.60;18.13;;;4.40;99.90;;;;;;5094860;28;20109;-81
2021/12/16 05:55:46;;;;;;;41.30;23.33;;;4.40;99.90;;;;;;5076582;28;20035;-80
2021/12/16 05:58:18;;;;;;;40.63;22.98;;;4.30;99.90;;;;;;5076483;28;20369;-81
2021/12/16 06:00:54;;;;;;;30.00;17.60;;;4.40;99.90;;;;;;5076554;28;20020;-81
2021/12/16 06:03:21;;;;;;;35.40;19.52;;;4.50;99.90;;;;;;5076485;28;20172;-81
2021/12/16 06:05:47;;;;;;;28.65;17.08;;;4.50;99.90;;;;;;5076381;28;20016;-82
2021/12/16 06:08:13;;;;;;;30.70;18.55;;;4.50;99.90;;;;;;5076396;28;20020;-81
2021/12/16 06:13:07;;;;;;;33.88;20.42;;;4.70;99.90;;;;;;5094765;28;20028;-81
2021/12/16 06:16:00;;;;;;;31.88;20.17;;;4.60;99.90;;;;;;5094421;28;20047;-82
2021/12/16 06:26:46;;;;;;;29.92;18.40;;;4.50;99.90;;;;;;5094770;28;20055;-82
2021/12/16 06:29:11;;;;;;;33.88;20.67;;;4.50;99.90;;;;;;5075912;28;20032;-81
2021/12/16 06:31:37;;;;;;;35.80;21.25;;;4.60;99.90;;;;;;5075825;28;20031;-82
2021/12/16 06:34:04;;;;;;;32.22;19.17;;;4.40;99.90;;;;;;5094083;28;20103;-82
2021/12/16 06:36:30;;;;;;;36.80;21.80;;;4.50;99.90;;;;;;5075815;28;20028;-81
2021/12/16 06:38:55;;;;;;;34.30;20.45;;;4.40;99.90;;;;;;5075562;28;20079;-82
2021/12/16 06:41:21;;;;;;;27.33;17.90;;;4.50;99.90;;;;;;5075731;28;20480;-82
2021/12/16 06:43:51;;;;;;;36.72;21.33;;;4.50;99.90;;;;;;5075673;28;20434;-81
2021/12/16 06:46:20;;;;;;;36.13;21.33;;;4.60;99.90;;;;;;5093826;28;20456;-82
2021/12/16 06:48:54;;;;;;;35.17;20.27;;;4.60;99.90;;;;;;5075326;28;20427;-81
2021/12/16 06:51:33;;;;;;;31.48;19.25;;;4.60;99.90;;;;;;5075552;28;20024;-82
2021/12/16 06:54:06;;;;;;;40.08;21.58;;;4.60;99.90;;;;;;5075514;28;20024;-82
2021/12/16 06:56:45;;;;;;;35.92;19.83;;;4.60;99.90;;;;;;5075517;28;20120;-82
2021/12/16 06:59:21;;;;;;;35.25;19.67;;;4.50;99.90;;;;;;5075281;28;20073;-81
2021/12/16 07:02:02;;;;;;;43.28;22.55;;;4.60;99.90;;;;;;5093563;28;20020;-82
2021/12/16 07:04:28;;;;;;;35.03;19.70;;;4.50;99.90;;;;;;5075337;28;20094;-82
2021/12/16 07:06:54;;;;;;;36.20;20.85;;;4.40;99.90;;;;;;5075258;28;20028;-82
2021/12/16 07:09:21;;;;;;;30.88;17.83;;;4.50;99.90;;;;;;5075237;28;20024;-82
2021/12/16 07:11:52;;;;;;;38.50;21.48;;;4.50;99.90;;;;;;5075228;28;20024;-82
2021/12/16 07:14:23;;;;;;;43.30;23.38;;;4.50;99.90;;;;;;5075317;28;20028;-81
2021/12/16 07:16:57;;;;;;;36.08;20.33;;;4.50;99.90;;;;;;5075140;28;20027;-82
2021/12/16 07:19:23;;;;;;;37.63;20.20;;;4.60;99.90;;;;;;5075167;28;20046;-82
2021/12/16 07:21:48;;;;;;;34.80;20.13;;;4.60;99.90;;;;;;5093253;28;20258;-82
2021/12/16 07:24:17;;;;;;;38.55;20.98;;;4.60;99.90;;;;;;5075018;28;20024;-82
2021/12/16 07:26:44;;;;;;;40.28;22.05;;;4.60;99.90;;;;;;5075033;28;20077;-82
2021/12/16 07:29:10;;;;;;;37.72;21.27;;;4.60;99.90;;;;;;5075049;28;20480;-82
2021/12/16 07:31:38;;;;;;;40.33;21.23;;;4.70;99.90;;;;;;5093174;28;20034;-82
2021/12/16 07:34:06;;;;;;;30.17;18.58;;;4.60;99.90;;;;;;5093113;28;20024;-82
2021/12/16 07:36:33;;;;;;;32.10;18.17;;;4.60;99.90;;;;;;5074861;28;20024;-82
2021/12/16 07:39:01;;;;;;;34.45;19.40;;;4.60;99.90;;;;;;5092761;28;20483;-82
2021/12/16 07:41:32;;;;;;;31.67;19.70;;;4.70;99.90;;;;;;5074981;28;20020;-82
2021/12/16 07:44:10;;;;;;;37.38;21.45;;;4.70;99.90;;;;;;5074877;28;20031;-82
2021/12/16 07:46:45;;;;;;;34.58;18.75;;;4.60;99.90;;;;;;5093313;28;20035;-82
2021/12/16 07:49:19;;;;;;;38.08;21.10;;;4.70;99.90;;;;;;5074815;28;20455;-82
2021/12/16 07:51:46;;;;;;;37.75;21.02;;;4.60;99.90;;;;;;5074854;28;20470;-82
2021/12/16 07:54:14;;;;;;;32.40;18.75;;;4.50;99.90;;;;;;5092919;28;20028;-82
2021/12/16 07:56:41;;;;;;;33.38;19.45;;;4.50;99.90;;;;;;5074719;28;20438;-82
2021/12/16 07:59:08;;;;;;;33.35;18.60;;;4.60;99.90;;;;;;5075925;28;20394;-82
2021/12/16 08:01:35;;;;;;;35.92;19.58;;;4.60;99.90;;;;;;5097054;28;20073;-82
2021/12/16 08:04:01;;;;;;;35.25;20.17;;;4.60;99.90;;;;;;5096970;28;20016;-82
2021/12/16 08:06:29;;;;;;;55.13;30.77;;;4.60;99.90;;;;;;5079340;28;20032;-82
2021/12/16 08:09:03;;;;;;;43.42;26.40;;;4.50;99.90;;;;;;5096869;28;20064;-82
2021/12/16 08:11:35;;;;;;;35.97;20.98;;;4.50;99.90;;;;;;5078754;28;20026;-82
2021/12/16 08:14:03;;;;;;;34.55;19.95;;;4.50;99.90;;;;;;5078625;28;20036;-82
2021/12/16 08:16:29;;;;;;;33.95;20.70;;;4.60;99.90;;;;;;5078599;28;20051;-82
2021/12/16 08:18:55;;;;;;;30.83;18.65;;;4.60;99.90;;;;;;5078401;28;20051;-82
2021/12/16 08:21:24;;;;;;;35.47;20.02;;;4.60;99.90;;;;;;5078388;28;20027;-82
2021/12/16 08:23:50;;;;;;;36.08;20.15;;;4.60;99.90;;;;;;5078371;28;20503;-82
2021/12/16 08:26:17;;;;;;;32.38;19.05;;;4.60;99.90;;;;;;5078370;28;20446;-81
2021/12/16 08:28:43;;;;;;;32.13;18.65;;;4.70;99.90;;;;;;5078248;28;20062;-82
2021/12/16 08:31:10;;;;;;;36.40;20.67;;;4.70;99.90;;;;;;5078282;28;20055;-82
2021/12/16 08:33:37;;;;;;;33.22;19.70;;;4.70;99.90;;;;;;5078223;28;20112;-82
2021/12/16 08:36:08;;;;;;;42.67;23.48;;;4.60;99.90;;;;;;5078125;28;20454;-82
2021/12/16 08:38:36;;;;;;;34.45;19.45;;;4.70;99.90;;;;;;5077826;28;20039;-81
2021/12/16 08:41:08;;;;;;;36.95;20.17;;;4.70;99.90;;;;;;5078159;28;20040;-82
2021/12/16 08:43:35;;;;;;;32.35;18.90;;;4.80;99.90;;;;;;5078088;28;20020;-82
2021/12/16 08:46:03;;;;;;;31.40;19.08;;;4.80;99.90;;;;;;5077963;28;20055;-83
2021/12/16 08:48:29;;;;;;;30.67;18.23;;;4.80;99.90;;;;;;5096051;28;20373;-82
2021/12/16 08:50:56;;;;;;;33.78;19.38;;;4.80;99.90;;;;;;5096069;28;20031;-83
2021/12/16 08:53:23;;;;;;;36.30;19.50;;;4.90;99.90;;;;;;5077858;28;20024;-82
2021/12/16 08:55:53;;;;;;;32.80;18.02;;;4.90;99.90;;;;;;5077790;28;20119;-82
2021/12/16 08:58:19;;;;;;;30.92;17.90;;;5.00;99.90;;;;;;5078554;28;20482;-82
2021/12/16 09:00:51;;;;;;;29.88;17.98;;;4.90;99.90;;;;;;5077702;28;20039;-82
2021/12/16 09:03:17;;;;;;;36.05;19.20;;;5.00;99.90;;;;;;5077809;28;20031;-82
2021/12/16 09:05:43;;;;;;;31.25;17.40;;;4.90;99.90;;;;;;5077637;28;20024;-82
2021/12/16 09:08:09;;;;;;;32.35;18.33;;;4.80;99.90;;;;;;5077587;28;20024;-82
2021/12/16 09:10:36;;;;;;;26.88;16.67;;;4.90;99.90;;;;;;5076770;28;20025;-83
2021/12/16 09:13:09;;;;;;;31.15;18.05;;;4.90;99.90;;;;;;5077518;28;20028;-82
2021/12/16 09:15:44;;;;;;;28.02;17.05;;;4.90;99.90;;;;;;5095696;28;20047;-82
2021/12/16 09:18:11;;;;;;;28.25;15.70;;;5.00;99.90;;;;;;5077412;28;20139;-82
2021/12/16 09:20:38;;;;;;;28.27;16.83;;;5.00;99.90;;;;;;5095546;28;20024;-82
2021/12/16 09:23:05;;;;;;;31.17;17.20;;;5.00;99.90;;;;;;5077414;28;20069;-83
2021/12/16 09:25:32;;;;;;;29.88;16.90;;;5.10;99.90;;;;;;5095472;28;20467;-82
2021/12/16 09:27:58;;;;;;;24.55;15.60;;;5.10;99.90;;;;;;5077195;28;20023;-82
2021/12/16 09:30:27;;;;;;;25.83;15.60;;;5.20;99.90;;;;;;5095369;28;20028;-82
2021/12/16 09:32:57;;;;;;;25.17;16.13;;;5.20;99.90;;;;;;5077259;28;20028;-82
2021/12/16 09:35:24;;;;;;;24.38;15.27;;;5.20;99.90;;;;;;5077125;28;20024;-82
2021/12/16 09:37:51;;;;;;;26.10;15.23;;;5.20;99.90;;;;;;5095221;28;20032;-83
2021/12/16 09:40:21;;;;;;;23.38;14.00;;;5.20;99.90;;;;;;5095067;28;20123;-83
2021/12/16 09:42:48;;;;;;;25.13;14.63;;;5.30;99.90;;;;;;5095150;28;20069;-83
2021/12/16 09:45:15;;;;;;;23.67;13.85;;;5.30;99.90;;;;;;5095107;28;20107;-83
2021/12/16 09:47:43;;;;;;;22.35;14.40;;;5.40;99.90;;;;;;5095021;28;20020;-81
2021/12/16 09:50:13;;;;;;;27.55;15.82;;;5.40;99.90;;;;;;5076802;28;20031;-81
2021/12/16 09:52:39;;;;;;;22.80;14.48;;;5.40;99.90;;;;;;5076920;28;20040;-82
2021/12/16 09:55:07;;;;;;;28.02;16.45;;;5.40;99.90;;;;;;5076805;28;20032;-83
2021/12/16 09:57:33;;;;;;;27.10;16.23;;;5.30;99.90;;;;;;5076599;28;20032;-82
2021/12/16 09:59:59;;;;;;;30.77;15.48;;;5.20;99.90;;;;;;5076679;28;20020;-82
2021/12/16 10:02:25;;;;;;;22.08;14.10;;;5.30;99.90;;;;;;5076589;28;20024;-82
2021/12/16 10:04:51;;;;;;;27.55;16.73;;;5.40;99.90;;;;;;5076554;28;20020;-82
2021/12/16 10:07:21;;;;;;;31.35;17.30;;;5.30;99.90;;;;;;5076472;28;20027;-82
2021/12/16 10:09:50;;;;;;;23.95;13.75;;;5.30;99.90;;;;;;5076470;28;20114;-84
2021/12/16 10:12:20;;;;;;;25.25;14.45;;;5.30;99.90;;;;;;5076406;28;20073;-82
2021/12/16 10:17:24;;;;;;;25.38;15.95;;;5.40;99.90;;;;;;5094416;28;20121;-83
2021/12/16 10:19:52;;;;;;;26.58;15.60;;;5.40;99.90;;;;;;5076293;28;20032;-81
2021/12/16 10:22:38;;;;;;;51.88;28.02;;;5.50;99.90;;;;;;5076229;28;20021;-82
2021/12/16 10:25:31;;;;;;;33.90;18.60;;;5.40;99.90;;;;;;5076189;28;20024;-82
2021/12/16 10:28:09;;;;;;;27.25;16.45;;;5.50;99.90;;;;;;5076023;28;20438;-82
2021/12/16 10:31:02;;;;;;;26.95;15.55;;;5.40;99.90;;;;;;5075983;28;20472;-82
2021/12/16 10:33:41;;;;;;;22.55;14.10;;;5.50;99.90;;;;;;5094210;28;20058;-82
2021/12/16 10:36:20;;;;;;;23.52;14.45;;;5.50;99.90;;;;;;5094387;28;20020;-83
2021/12/16 10:38:46;;;;;;;25.13;15.68;;;5.50;99.90;;;;;;5075482;28;20048;-83
2021/12/16 10:41:17;;;;;;;23.70;14.93;;;5.50;99.90;;;;;;5093936;28;20023;-82
2021/12/16 10:43:48;;;;;;;25.98;15.75;;;5.50;99.90;;;;;;5075766;28;20451;-81
2021/12/16 10:46:18;;;;;;;25.65;15.52;;;5.50;99.90;;;;;;5093898;28;20023;-82
2021/12/16 10:48:47;;;;;;;22.80;14.43;;;5.50;99.90;;;;;;5093816;28;20024;-83
2021/12/16 10:51:13;;;;;;;25.33;15.68;;;5.50;99.90;;;;;;5075663;28;20028;-83
2021/12/16 10:54:05;;;;;;;27.25;15.93;;;5.50;99.90;;;;;;5075586;28;20028;-82
2021/12/16 10:56:37;;;;;;;26.00;16.00;;;5.50;99.90;;;;;;5075549;28;20031;-82
2021/12/16 10:59:11;;;;;;;28.70;16.48;;;5.50;99.90;;;;;;5093621;28;20028;-82
2021/12/16 11:01:45;;;;;;;28.42;16.48;;;5.50;99.90;;;;;;5093630;28;20046;-82
2021/12/16 11:04:21;;;;;;;27.35;15.25;;;5.50;99.90;;;;;;5075415;28;20024;-82
2021/12/16 11:06:52;;;;;;;28.30;16.38;;;5.50;99.90;;;;;;5075468;28;20484;-82
2021/12/16 11:09:24;;;;;;;27.63;16.80;;;5.50;99.90;;;;;;5093535;28;20109;-82
2021/12/16 11:12:10;;;;;;;29.80;16.98;;;5.60;99.90;;;;;;5075305;28;20495;-82
2021/12/16 11:14:38;;;;;;;29.75;16.90;;;5.60;99.90;;;;;;5074870;28;20492;-82
2021/12/16 11:17:09;;;;;;;32.40;18.90;;;5.60;99.90;;;;;;5075189;28;20055;-82
2021/12/16 11:19:51;;;;;;;44.63;23.08;;;5.70;99.90;;;;;;5075211;28;20050;-82
2021/12/16 11:22:23;;;;;;;27.55;16.60;;;5.70;99.90;;;;;;5075872;28;20024;-83
2021/12/16 11:24:52;;;;;;;22.88;15.20;;;5.70;99.90;;;;;;5075292;28;20024;-82
2021/12/16 11:27:22;;;;;;;44.95;25.25;;;5.70;99.90;;;;;;5093263;28;20030;-82
2021/12/16 11:29:48;;;;;;;37.67;21.65;;;5.70;99.90;;;;;;5093370;28;20020;-82
2021/12/16 11:32:33;;;;;;;31.33;18.67;;;5.60;99.90;;;;;;5075064;28;20365;-83
2021/12/16 11:34:59;;;;;;;23.13;14.35;;;5.70;99.90;;;;;;5075058;28;20588;-83
2021/12/16 11:37:25;;;;;;;23.80;15.13;;;5.60;99.90;;;;;;5074966;28;20036;-83
2021/12/16 11:39:51;;;;;;;31.10;16.95;;;5.70;99.90;;;;;;5074770;28;20048;-83
2021/12/16 11:42:27;;;;;;;27.23;15.95;;;5.70;99.90;;;;;;5093130;28;20091;-83
2021/12/16 11:44:53;;;;;;;26.00;15.25;;;5.70;99.90;;;;;;5075054;28;20494;-82
2021/12/16 11:47:22;;;;;;;25.25;15.57;;;5.70;99.90;;;;;;5093536;28;20024;-83
2021/12/16 11:49:56;;;;;;;29.02;16.02;;;5.60;99.90;;;;;;5074908;28;20035;-83
2021/12/16 11:52:35;;;;;;;27.63;15.80;;;5.60;99.90;;;;;;5074931;28;20024;-83
2021/12/16 11:55:08;;;;;;;25.05;15.15;;;5.60;99.90;;;;;;5074908;28;20067;-82
2021/12/16 11:57:53;;;;;;;23.77;15.00;;;5.60;99.90;;;;;;5092908;28;20036;-83
2021/12/16 12:00:22;;;;;;;23.77;14.52;;;5.60;99.90;;;;;;5075513;28;20258;-82
2021/12/16 12:02:55;;;;;;;26.95;15.60;;;5.70;99.90;;;;;;5074797;28;20047;-83
2021/12/16 12:05:35;;;;;;;28.65;15.63;;;5.60;99.90;;;;;;5074735;28;20052;-83
2021/12/16 12:08:10;;;;;;;31.80;18.02;;;5.60;99.90;;;;;;5074760;28;20055;-82
2021/12/16 12:10:59;;;;;;;25.45;13.57;;;5.60;99.90;;;;;;5074783;28;20028;-86
2021/12/16 12:13:38;;;;;;;25.95;15.07;;;5.70;99.90;;;;;;5074635;28;20387;-82
2021/12/16 12:16:19;;;;;;;31.48;16.90;;;5.70;99.90;;;;;;5074552;28;20134;-82
2021/12/16 12:19:08;;;;;;;25.95;15.13;;;5.70;99.90;;;;;;5092692;28;20024;-82
2021/12/16 12:21:54;;;;;;;25.67;15.27;;;5.70;99.90;;;;;;5074664;28;20073;-82
2021/12/16 12:24:37;;;;;;;22.98;14.23;;;5.70;99.90;;;;;;5074581;28;20028;-83
2021/12/16 12:27:09;;;;;;;24.13;15.23;;;5.70;99.90;;;;;;5092862;28;20048;-82
2021/12/16 12:29:44;;;;;;;23.73;14.95;;;5.70;99.90;;;;;;5075279;28;20451;-82
2021/12/16 12:32:18;;;;;;;22.35;14.38;;;5.70;99.90;;;;;;5074533;28;20115;-82
2021/12/16 12:34:57;;;;;;;24.02;14.50;;;5.70;99.90;;;;;;5074473;28;20082;-82
2021/12/16 12:37:24;;;;;;;24.15;13.82;;;5.70;99.90;;;;;;5074334;28;20024;-82
2021/12/16 12:40:13;;;;;;;22.77;14.60;;;5.70;99.90;;;;;;5074239;28;20404;-82
2021/12/16 12:42:40;;;;;;;23.15;14.32;;;5.70;99.90;;;;;;5092318;28;20034;-82
2021/12/16 12:45:09;;;;;;;21.98;13.35;;;5.70;99.90;;;;;;5074364;28;20028;-82
2021/12/16 12:47:37;;;;;;;23.65;13.77;;;5.90;99.90;;;;;;5077689;28;20048;-82
2021/12/16 12:50:16;;;;;;;23.50;14.52;;;6.00;99.90;;;;;;5077994;28;20429;-82
2021/12/16 12:52:46;;;;;;;23.52;14.15;;;6.00;99.90;;;;;;5096125;28;20032;-82
2021/12/16 12:55:17;;;;;;;23.77;13.75;;;6.10;99.90;;;;;;5078216;28;20031;-82
2021/12/16 12:57:44;;;;;;;22.80;13.75;;;6.10;99.90;;;;;;5078006;28;20085;-82
2021/12/16 13:00:31;;;;;;;25.23;14.77;;;6.10;99.90;;;;;;5077859;28;20056;-82
2021/12/16 13:03:34;;;;;;;22.65;14.30;;;6.20;99.90;;;;;;5077796;28;20020;-79
2021/12/16 13:06:03;;;;;;;23.25;14.43;;;6.20;99.90;;;;;;5093848;28;20089;-79
2021/12/16 13:08:39;;;;;;;27.48;14.65;;;6.30;99.90;;;;;;5078442;28;20349;-79
2021/12/16 13:11:14;;;;;;;22.88;12.82;;;6.30;99.90;;;;;;5077607;28;20034;-79
2021/12/16 13:14:17;;;;;;;19.92;13.02;;;6.30;99.90;;;;;;5096082;28;20505;-79
2021/12/16 13:28:20;;;;;;;19.80;11.55;;;6.40;99.90;;;;;;5095792;28;20035;-79
2021/12/16 13:30:59;;;;;;;16.92;10.38;;;6.40;99.90;;;;;;5077263;28;20020;-79
2021/12/16 13:33:42;;;;;;;19.48;12.07;;;6.40;99.90;;;;;;5077172;28;20032;-79
2021/12/16 13:36:26;;;;;;;26.73;13.35;;;6.20;99.90;;;;;;5095397;28;20031;-79
2021/12/16 13:38:53;;;;;;;18.35;11.98;;;6.20;99.90;;;;;;5076821;28;20048;-79
2021/12/16 13:41:25;;;;;;;18.30;11.82;;;6.30;99.90;;;;;;5095219;28;20478;-79
2021/12/16 13:44:07;;;;;;;26.40;13.80;;;6.30;99.90;;;;;;5095467;28;20031;-79
2021/12/16 13:47:08;;;;;;;20.33;13.63;;;6.30;99.90;;;;;;5076991;28;20020;-79
2021/12/16 14:02:25;;;;;;;23.33;13.52;;;6.30;99.90;;;;;;5094808;28;20012;-80
2021/12/16 14:10:17;;;;;;;25.23;13.27;;;6.20;99.90;;;;;;5095031;28;20017;-79
2021/12/16 14:25:27;;;;;;;21.83;13.35;;;6.00;99.90;;;;;;5094679;28;20479;-79
2021/12/16 14:42:14;;;;;;;26.90;13.13;;;5.90;99.90;;;;;;5094347;28;20032;-79
2021/12/16 14:50:28;;;;;;;22.13;13.47;;;5.90;99.90;;;;;;5094008;28;20028;-79
2021/12/16 14:52:55;;;;;;;22.42;13.40;;;5.90;99.90;;;;;;5075720;28;20372;-79
2021/12/16 14:55:24;;;;;;;49.95;23.27;;;5.80;99.90;;;;;;5075586;28;20028;-79
2021/12/16 14:57:54;;;;;;;41.05;20.38;;;5.80;99.90;;;;;;5075418;28;20032;-79
2021/12/16 15:00:30;;;;;;;24.92;13.80;;;5.80;99.90;;;;;;5075550;28;20024;-79
2021/12/16 15:03:16;;;;;;;23.85;14.30;;;5.80;99.90;;;;;;5093693;28;20066;-79
2021/12/16 15:05:46;;;;;;;31.23;13.45;;;5.80;99.90;;;;;;5075484;28;20097;-79
2021/12/16 15:08:28;;;;;;;22.27;12.18;;;5.80;99.90;;;;;;5074990;28;20406;-79
2021/12/16 15:10:55;;;;;;;25.33;12.32;;;5.70;99.90;;;;;;5075605;28;20115;-79
2021/12/16 15:13:38;;;;;;;21.27;12.60;;;5.70;99.90;;;;;;5075327;28;20032;-79
2021/12/16 15:16:18;;;;;;;28.17;13.35;;;5.80;99.90;;;;;;5075369;28;20024;-79
2021/12/16 15:34:14;;;;;;;25.98;13.73;;;5.40;99.90;;;;;;5093579;28;19949;-79
2021/12/16 15:40:41;;;;;;;21.60;14.40;;;5.20;99.90;;;;;;5092904;28;20491;-80
2021/12/16 15:43:13;;;;;;;27.67;14.40;;;5.10;99.90;;;;;;5075475;28;20523;-80
2021/12/16 15:45:49;;;;;;;20.48;12.02;;;5.10;99.90;;;;;;5074953;28;20023;-80
2021/12/16 15:48:27;;;;;;;24.40;14.18;;;5.10;99.90;;;;;;5074854;28;20555;-79
2021/12/16 15:51:06;;;;;;;30.08;15.40;;;5.00;99.90;;;;;;5093094;28;20407;-79
2021/12/16 15:53:37;;;;;;;24.80;14.80;;;4.90;99.90;;;;;;5093065;28;20031;-79
2021/12/16 15:56:07;;;;;;;27.73;13.88;;;4.90;99.90;;;;;;5074978;28;20421;-79
2021/12/16 15:58:38;;;;;;;29.00;14.15;;;4.80;99.90;;;;;;5074680;28;20448;-79
2021/12/16 16:01:30;;;;;;;22.10;12.73;;;4.80;99.90;;;;;;5093200;28;20024;-79
2021/12/16 16:03:57;;;;;;;27.45;14.90;;;4.70;99.90;;;;;;5092510;28;20122;-79
2021/12/16 16:06:24;;;;;;;33.40;19.25;;;4.70;99.90;;;;;;5092934;28;20044;-80
2021/12/16 16:09:00;;;;;;;34.38;21.92;;;4.70;99.90;;;;;;5074632;28;20040;-79
2021/12/16 16:11:29;;;;;;;31.60;19.33;;;4.60;99.90;;;;;;5074949;28;20066;-79
2021/12/16 16:14:00;;;;;;;34.67;19.30;;;4.60;99.90;;;;;;5074667;28;20116;-80
2021/12/16 16:16:34;;;;;;;31.92;19.25;;;4.50;99.90;;;;;;5074662;28;20073;-80
2021/12/16 16:19:03;;;;;;;39.22;18.60;;;4.50;99.90;;;;;;5092631;28;20016;-80
2021/12/16 16:21:33;;;;;;;31.55;17.52;;;4.50;99.90;;;;;;5078004;28;20028;-80
2021/12/16 16:24:07;;;;;;;32.40;17.48;;;4.50;99.90;;;;;;5096987;28;20373;-80
2021/12/16 16:26:34;;;;;;;31.30;18.98;;;4.50;99.90;;;;;;5078441;28;20162;-80
2021/12/16 16:29:04;;;;;;;32.75;17.85;;;4.50;99.90;;;;;;5096573;28;20471;-80
2021/12/16 16:31:32;;;;;;;35.65;18.98;;;4.50;99.90;;;;;;5078416;28;20159;-80
2021/12/16 16:33:59;;;;;;;40.80;22.77;;;4.40;99.90;;;;;;5078300;28;20024;-80
2021/12/16 16:36:28;;;;;;;28.65;16.38;;;4.40;99.90;;;;;;5096690;28;20031;-80
2021/12/16 16:38:58;;;;;;;32.03;18.13;;;4.30;99.90;;;;;;5096074;28;20041;-79
2021/12/16 16:41:28;;;;;;;26.05;15.98;;;4.40;99.90;;;;;;5096398;28;20029;-80
2021/12/16 16:44:01;;;;;;;28.05;16.83;;;4.40;99.90;;;;;;5078106;28;20024;-79
2021/12/16 16:47:08;;;;;;;30.10;15.27;;;4.30;99.90;;;;;;5096491;28;20419;-80
2021/12/16 16:49:49;;;;;;;26.58;13.93;;;4.40;99.90;;;;;;5096014;28;20023;-78